Wales Center, New York
Current Conditions -  °F | °C
As of 7:54 PM on Saturday 22 Nov 2014 (Local Time) from KBUF Reporting Station
Overcast Overcast  
Wind Chill: 32°   Ceiling: 2000
Heat Index: 40°   Visibility: 8mi
Dew Point: 37°   Wind: 15mph
Humidity: 89%   Direction: 210°SSW
Pressure: 29.98"   Gusts: NA
Location:  42.77°N, 78.53°W
Report Text: KBUF 230054Z 21013KT 8SM OVC020 04/03 A2998 RMK AO2 RAB10E19 SLP160 P0000 T00440028
Loading
Personal Weather Stations






























Interactive Weather Map New forecast layout! Learn more

10-Day Weather Forecast

Advertisements
Track Severe Weather on mobile